Time;durP1;ratioP1;P1;durP2;ratioP2;P2;SDS_P1;SDS_P2;PMS_P1;PMS_P2;Temp;Humidity;BMP_temperature;BMP_pressure;BME280_temperature;BME280_humidity;BME280_pressure;Samples;Min_cycle;Max_cycle;Signal;HPM_P1;HPM_P2
2022/01/19 00:02:00;;;;;;;19.73;6.27;;;;;;;2.68;56.75;102275.22;5359445;32;35330;-71
2022/01/19 00:05:03;;;;;;;16.70;5.80;;;;;;;2.74;56.14;102273.59;5365585;32;35392;-70
2022/01/19 00:08:06;;;;;;;21.30;7.85;;;;;;;3.09;55.39;102277.87;5376025;32;35481;-69
2022/01/19 00:11:08;;;;;;;16.90;5.73;;;;;;;2.98;55.76;102274.16;5369363;32;35275;-69
2022/01/19 00:14:10;;;;;;;18.33;5.97;;;;;;;3.36;55.29;102287.09;5368594;32;36113;-69
2022/01/19 00:17:12;;;;;;;19.70;6.30;;;;;;;3.17;55.40;102281.50;5369674;32;37668;-69
2022/01/19 00:20:14;;;;;;;22.80;6.57;;;;;;;3.19;55.01;102292.81;5369409;32;35044;-69
2022/01/19 00:23:18;;;;;;;22.27;6.73;;;;;;;2.74;56.01;102297.84;5367004;32;46810;-68
2022/01/19 00:26:21;;;;;;;15.83;6.10;;;;;;;2.52;57.56;102298.19;5385775;32;35600;-68
2022/01/19 00:29:23;;;;;;;14.90;6.10;;;;;;;2.48;57.97;102302.41;5367438;32;35459;-68
2022/01/19 00:32:26;;;;;;;22.70;7.03;;;;;;;2.64;57.52;102312.34;5371880;32;36143;-68
2022/01/19 00:35:28;;;;;;;20.98;7.40;;;;;;;2.74;57.14;102308.22;5370355;32;37189;-69
2022/01/19 00:38:30;;;;;;;16.17;5.67;;;;;;;2.35;58.13;102306.41;5379806;32;34580;-68
2022/01/19 00:41:32;;;;;;;17.50;6.40;;;;;;;2.13;59.17;102319.69;5369448;32;34394;-69
2022/01/19 00:44:34;;;;;;;17.07;6.20;;;;;;;2.53;57.70;102311.19;5367111;32;34967;-68
2022/01/19 00:47:37;;;;;;;18.93;6.40;;;;;;;2.52;57.71;102316.34;5370724;32;34638;-68
2022/01/19 00:50:39;;;;;;;21.50;7.80;;;;;;;2.04;59.46;102304.75;5367548;32;35665;-69
2022/01/19 00:53:41;;;;;;;19.93;6.53;;;;;;;2.32;58.48;102329.72;5372113;32;35277;-68
2022/01/19 00:56:44;;;;;;;20.70;7.03;;;;;;;1.73;60.21;102323.78;5343192;32;34407;-68
2022/01/19 00:59:46;;;;;;;17.63;7.13;;;;;;;2.57;57.98;102307.81;5359477;32;42828;-68
2022/01/19 01:02:48;;;;;;;17.23;6.80;;;;;;;2.02;58.46;102309.03;5368385;32;35218;-67
2022/01/19 01:05:51;;;;;;;17.07;6.50;;;;;;;2.02;59.81;102303.84;5357246;32;34642;-69
2022/01/19 01:08:53;;;;;;;22.70;6.93;;;;;;;2.26;58.97;102307.91;5380757;32;35704;-69
2022/01/19 01:12:09;;;;;;;23.73;7.03;;;;;;;2.98;56.05;102307.94;5364562;32;34601;-69
2022/01/19 01:16:18;;;;;;;21.33;6.53;;;;;;;2.98;55.92;102294.94;5371634;32;36079;-67
2022/01/19 01:18:45;;;;;;;17.83;6.53;;;;;;;1.46;61.32;102310.94;5366700;32;35299;-68
2022/01/19 01:21:47;;;;;;;24.03;6.67;;;;;;;2.48;57.66;102281.66;5368298;32;44450;-70
2022/01/19 01:24:49;;;;;;;21.63;6.87;;;;;;;2.41;58.17;102285.81;5372575;32;35439;-68
2022/01/19 01:27:51;;;;;;;19.90;7.23;;;;;;;2.72;57.03;102282.25;5367150;32;34487;-69
2022/01/19 01:30:54;;;;;;;23.00;6.97;;;;;;;2.12;58.19;102281.59;5371927;32;35203;-68
2022/01/19 01:33:56;;;;;;;20.53;7.53;;;;;;;0.73;63.31;102268.19;5364414;32;34720;-70
2022/01/19 01:36:58;;;;;;;19.43;8.17;;;;;;;2.16;59.62;102247.13;5372002;32;36967;-69
2022/01/19 01:40:01;;;;;;;19.80;6.40;;;;;;;2.52;57.78;102221.19;5380725;32;35601;-68
2022/01/19 01:43:06;;;;;;;19.05;6.68;;;;;;;2.47;57.91;102229.72;5364005;32;34456;-68
2022/01/19 01:46:16;;;;;;;22.67;7.27;;;;;;;1.68;59.69;102234.66;5372986;32;36384;-67
2022/01/19 01:49:27;;;;;;;22.53;6.83;;;;;;;1.74;60.36;102237.41;5365780;32;44514;-67
2022/01/19 01:55:50;;;;;;;18.07;6.80;;;;;;;1.62;60.91;102237.09;5346546;32;44438;-68
2022/01/19 01:58:52;;;;;;;19.57;7.37;;;;;;;1.93;60.07;102228.38;5364894;32;37985;-68
2022/01/19 02:01:54;;;;;;;22.70;7.27;;;;;;;2.29;58.69;102225.81;5364806;32;35337;-68
2022/01/19 02:04:56;;;;;;;20.20;6.93;;;;;;;2.43;57.50;102227.03;5354440;32;35391;-68
2022/01/19 02:08:08;;;;;;;20.13;7.73;;;;;;;1.96;58.63;102227.59;5370037;32;36205;-68
2022/01/19 02:24:43;;;;;;;21.63;7.77;;;;;;;1.97;59.29;102209.47;5366290;32;35369;-69
2022/01/19 02:41:01;;;;;;;20.47;7.17;;;;;;;0.87;62.98;102222.00;5366523;32;34804;-67
2022/01/19 02:44:05;;;;;;;21.83;7.50;;;;;;;0.84;63.68;102206.37;5377430;32;34730;-67
2022/01/19 02:50:21;;;;;;;18.55;8.07;;;;;;;1.05;61.95;102204.41;5369860;32;47017;-68
2022/01/19 02:53:23;;;;;;;20.53;8.13;;;;;;;0.81;63.07;102198.50;5366858;32;35066;-69
2022/01/19 02:56:30;;;;;;;25.10;8.20;;;;;;;1.13;62.23;102185.63;5344401;32;34378;-67
2022/01/19 03:09:31;;;;;;;17.27;7.00;;;;;;;1.25;61.63;102186.84;5369469;32;34795;-67
2022/01/19 03:12:33;;;;;;;24.30;8.27;;;;;;;0.92;62.27;102166.06;5367519;32;34360;-67
2022/01/19 03:15:35;;;;;;;23.13;8.47;;;;;;;1.14;61.58;102171.84;5372156;32;35646;-67
2022/01/19 03:18:37;;;;;;;22.30;8.13;;;;;;;1.63;59.97;102171.44;5366334;32;33483;-68
2022/01/19 03:21:40;;;;;;;25.40;8.07;;;;;;;0.73;63.41;102175.00;5386280;32;34917;-68
2022/01/19 03:24:49;;;;;;;23.60;8.13;;;;;;;0.67;64.30;102174.81;5368781;32;35846;-68
2022/01/19 03:27:51;;;;;;;16.67;7.47;;;;;;;1.08;62.57;102155.28;5371816;32;44235;-69
2022/01/19 03:30:53;;;;;;;19.30;7.43;;;;;;;1.12;62.73;102152.78;5370436;32;35232;-68
2022/01/19 03:33:55;;;;;;;22.77;8.17;;;;;;;1.57;60.50;102156.63;5366893;32;34715;-68
2022/01/19 03:36:58;;;;;;;22.03;8.13;;;;;;;1.63;60.30;102163.69;5385473;32;35503;-68
2022/01/19 03:40:00;;;;;;;23.20;8.03;;;;;;;1.15;61.97;102160.62;5376652;32;35780;-68
2022/01/19 03:43:05;;;;;;;21.33;7.70;;;;;;;0.48;64.25;102169.91;5366747;32;35249;-68
2022/01/19 03:46:13;;;;;;;24.10;7.73;;;;;;;0.49;64.77;102172.53;5370695;32;35333;-67
2022/01/19 03:49:23;;;;;;;20.20;8.07;;;;;;;0.81;62.97;102170.03;5369085;32;35876;-67
2022/01/19 03:52:25;;;;;;;28.20;8.60;;;;;;;0.65;64.10;102175.63;5370730;32;46620;-67
2022/01/19 03:55:28;;;;;;;19.60;8.13;;;;;;;0.93;63.52;102183.34;5352428;32;34436;-68
2022/01/19 03:58:30;;;;;;;20.57;7.90;;;;;;;0.78;63.87;102165.66;5361439;32;35744;-67
2022/01/19 04:01:32;;;;;;;24.20;8.30;;;;;;;1.30;61.21;102163.66;5359479;32;34648;-67
2022/01/19 04:07:56;;;;;;;24.23;7.40;;;;;;;0.23;65.88;102176.91;5364694;32;35525;-68
2022/01/19 04:10:59;;;;;;;20.63;8.60;;;;;;;1.24;62.35;102169.56;5367196;32;37151;-68
2022/01/19 04:17:08;;;;;;;20.33;7.93;;;;;;;1.21;61.16;102166.84;5367673;32;37357;-68
2022/01/19 04:20:15;;;;;;;19.43;7.90;;;;;;;0.90;62.05;102175.50;5371501;32;35163;-68
2022/01/19 04:23:18;;;;;;;22.27;7.63;;;;;;;1.27;61.97;102161.84;5368593;32;46161;-68
2022/01/19 04:26:20;;;;;;;22.33;8.70;;;;;;;1.16;61.79;102159.78;5368159;32;34502;-67
2022/01/19 04:29:23;;;;;;;22.10;9.60;;;;;;;1.20;61.05;102146.97;5368656;32;35545;-68
2022/01/19 04:32:33;;;;;;;22.00;8.67;;;;;;;1.12;61.27;102163.16;5362199;32;34377;-67
2022/01/19 04:35:45;;;;;;;23.47;9.53;;;;;;;1.16;61.51;102157.19;5364022;32;35438;-70
2022/01/19 04:39:23;;;;;;;21.80;8.33;;;;;;;0.80;62.10;102155.34;5375536;32;44594;-70
2022/01/19 05:02:04;;;;;;;24.90;9.47;;;;;;;1.16;62.85;102145.16;5364147;32;42905;-69
2022/01/19 05:05:18;;;;;;;23.13;10.07;;;;;;;0.80;63.56;102140.69;5363952;32;34473;-68
2022/01/19 05:15:06;;;;;;;26.37;10.60;;;;;;;0.56;65.07;102128.75;5365881;32;35407;-66
2022/01/19 05:18:13;;;;;;;30.73;9.83;;;;;;;0.24;65.12;102128.66;5373655;32;34351;-68
2022/01/19 05:21:15;;;;;;;29.27;10.07;;;;;;;0.57;64.40;102126.19;5375751;32;35929;-68
2022/01/19 05:24:17;;;;;;;27.77;10.40;;;;;;;-0.12;66.69;102123.22;5371105;32;45919;-67
2022/01/19 05:27:21;;;;;;;29.77;11.37;;;;;;;0.10;65.88;102135.09;5367415;32;34739;-69
2022/01/19 05:30:24;;;;;;;23.00;10.27;;;;;;;0.87;62.02;102123.62;5365492;32;35219;-68
2022/01/19 05:33:26;;;;;;;27.37;10.40;;;;;;;0.83;62.43;102124.34;5378988;32;35230;-70
2022/01/19 05:36:28;;;;;;;29.13;10.70;;;;;;;1.21;61.40;102122.81;5366907;32;34506;-70
2022/01/19 05:39:31;;;;;;;26.23;10.73;;;;;;;1.58;59.76;102124.66;5380805;32;35183;-68
2022/01/19 05:42:33;;;;;;;27.57;10.37;;;;;;;1.37;60.35;102131.03;5363593;32;35117;-69
2022/01/19 05:45:35;;;;;;;29.90;11.43;;;;;;;1.37;60.59;102123.25;5370759;32;35316;-68
2022/01/19 05:48:37;;;;;;;27.53;10.73;;;;;;;1.36;60.61;102122.38;5365180;32;34527;-69
2022/01/19 05:51:40;;;;;;;28.27;11.63;;;;;;;1.39;60.49;102126.75;5367036;32;34526;-68
2022/01/19 05:54:43;;;;;;;27.43;11.87;;;;;;;0.41;62.64;102111.94;5356957;32;35140;-68
2022/01/19 05:57:45;;;;;;;27.40;11.53;;;;;;;-0.11;66.45;102133.59;5347070;32;34807;-70
2022/01/19 06:00:48;;;;;;;31.03;11.27;;;;;;;0.76;63.09;102114.66;5362864;32;44664;-68
2022/01/19 06:03:51;;;;;;;26.57;11.27;;;;;;;1.24;61.27;102115.16;5354821;32;35233;-69
2022/01/19 06:06:56;;;;;;;25.00;10.57;;;;;;;1.32;61.17;102123.12;5367951;32;35232;-68
2022/01/19 06:10:06;;;;;;;26.37;10.60;;;;;;;1.29;60.83;102120.47;5373973;32;36272;-68
2022/01/19 06:13:10;;;;;;;26.90;10.93;;;;;;;1.31;60.49;102124.84;5369172;32;34638;-69
2022/01/19 06:16:12;;;;;;;27.85;11.55;;;;;;;1.17;61.49;102130.50;5355592;32;35739;-68
2022/01/19 06:19:19;;;;;;;31.50;12.27;;;;;;;-0.17;65.64;102136.00;5373008;32;35473;-69
2022/01/19 06:22:21;;;;;;;36.93;12.70;;;;;;;0.09;65.25;102138.53;5365083;32;45226;-68
2022/01/19 06:25:24;;;;;;;26.67;11.23;;;;;;;0.37;65.65;102135.94;5350854;32;34776;-68
2022/01/19 06:28:27;;;;;;;28.37;11.13;;;;;;;1.38;61.23;102122.41;5356824;32;33600;-74
2022/01/19 06:31:29;;;;;;;33.43;13.50;;;;;;;1.27;60.93;102130.75;5358263;32;34593;-71
2022/01/19 06:34:31;;;;;;;27.00;11.73;;;;;;;0.13;64.36;102132.59;5350428;32;35338;-73
2022/01/19 06:37:34;;;;;;;30.63;12.40;;;;;;;-0.60;68.97;102131.97;5367132;32;34477;-73
2022/01/19 06:40:37;;;;;;;37.00;11.35;;;;;;;0.36;65.11;102139.38;5348319;32;34700;-71
2022/01/19 06:43:40;;;;;;;27.70;11.33;;;;;;;1.12;62.37;102126.91;5357941;32;36319;-73
2022/01/19 06:46:43;;;;;;;26.63;11.90;;;;;;;1.47;60.98;102120.91;5353895;32;34607;-69
2022/01/19 06:49:45;;;;;;;31.93;10.93;;;;;;;0.59;63.01;102115.91;5352615;32;34566;-70
2022/01/19 06:52:48;;;;;;;26.70;11.00;;;;;;;1.04;61.95;102114.63;5357440;32;46805;-72
2022/01/19 06:55:50;;;;;;;27.30;11.73;;;;;;;0.34;65.56;102132.41;5328245;32;34452;-71
2022/01/19 06:58:53;;;;;;;33.60;12.77;;;;;;;-0.64;69.86;102113.75;5340789;32;32773;-74
2022/01/19 07:01:55;;;;;;;32.63;11.87;;;;;;;-0.27;68.81;102110.66;5344613;32;35009;-71
2022/01/19 07:05:00;;;;;;;44.67;16.07;;;;;;;0.42;66.57;102115.41;5374505;32;36312;-67
2022/01/19 07:08:02;;;;;;;26.23;11.07;;;;;;;0.56;64.66;102110.63;5373343;32;34602;-63
2022/01/19 07:11:06;;;;;;;39.00;12.80;;;;;;;-0.07;67.07;102116.47;5368215;32;34469;-76
2022/01/19 07:14:12;;;;;;;29.50;12.93;;;;;;;-0.09;68.40;102116.44;5357775;32;35809;-66
2022/01/19 07:17:14;;;;;;;31.33;11.80;;;;;;;0.07;66.92;102115.22;5369846;32;35431;-64
2022/01/19 07:20:17;;;;;;;32.67;12.47;;;;;;;1.35;62.41;102107.66;5378306;32;44476;-66
2022/01/19 07:23:19;;;;;;;31.50;11.90;;;;;;;0.98;63.15;102106.69;5363167;32;36329;-68
2022/01/19 07:26:22;;;;;;;35.60;12.50;;;;;;;0.45;64.74;102100.87;5363583;32;35902;-73
2022/01/19 07:29:24;;;;;;;33.37;14.03;;;;;;;0.22;66.39;102102.75;5372459;32;34667;-72
2022/01/19 07:32:30;;;;;;;27.07;11.63;;;;;;;0.68;64.99;102091.16;5373109;32;34411;-79
2022/01/19 07:35:32;;;;;;;36.23;13.53;;;;;;;0.85;64.44;102083.88;5365797;32;34552;-68
2022/01/19 07:38:35;;;;;;;29.70;12.60;;;;;;;1.02;63.31;102080.03;5363511;32;35347;-70
2022/01/19 07:41:38;;;;;;;37.60;11.67;;;;;;;0.17;65.95;102069.81;5371098;32;34704;-71
2022/01/19 07:44:40;;;;;;;37.40;13.25;;;;;;;0.73;64.80;102081.81;5369552;32;34513;-72
2022/01/19 07:47:43;;;;;;;33.47;12.53;;;;;;;1.43;62.31;102074.19;5371732;32;35026;-70
2022/01/19 07:50:45;;;;;;;34.17;13.70;;;;;;;-0.68;69.32;102081.75;5368144;32;34548;-72
2022/01/19 07:53:47;;;;;;;34.80;13.03;;;;;;;-0.15;68.46;102076.59;5372963;32;44309;-66
2022/01/19 07:56:50;;;;;;;30.23;13.73;;;;;;;0.26;67.07;102073.56;5335348;32;36221;-67
2022/01/19 07:59:52;;;;;;;30.57;11.83;;;;;;;0.34;65.81;102075.50;5369720;32;34655;-66
2022/01/19 08:02:54;;;;;;;31.00;13.20;;;;;;;0.78;64.99;102069.03;5366995;32;35080;-69
2022/01/19 08:05:57;;;;;;;62.73;16.20;;;;;;;0.67;64.53;102070.44;5365810;32;34428;-69
2022/01/19 08:09:00;;;;;;;40.67;13.77;;;;;;;1.43;62.33;102064.69;5354917;32;36090;-68
2022/01/19 08:12:03;;;;;;;35.57;13.20;;;;;;;1.69;61.82;102069.63;5358853;32;33406;-66
2022/01/19 08:15:06;;;;;;;33.67;13.02;;;;;;;2.36;58.75;102056.47;5349312;32;34550;-71
2022/01/19 08:18:08;;;;;;;27.65;12.13;;;;;;;2.06;59.50;102054.09;5350736;32;35936;-70
2022/01/19 08:21:11;;;;;;;37.53;13.03;;;;;;;1.35;61.05;102048.06;5358273;32;35838;-68
2022/01/19 08:24:14;;;;;;;35.90;13.23;;;;;;;0.33;66.18;102053.94;5360456;32;36630;-73
2022/01/19 08:27:17;;;;;;;31.37;13.27;;;;;;;0.68;65.48;102054.94;5358391;32;43330;-67
2022/01/19 08:30:20;;;;;;;36.10;13.57;;;;;;;0.95;64.31;102046.16;5362425;32;37111;-67
2022/01/19 08:33:23;;;;;;;33.73;12.87;;;;;;;2.54;58.71;102040.41;5360237;32;34787;-70
2022/01/19 08:36:26;;;;;;;35.23;13.17;;;;;;;2.54;58.09;102043.00;5352181;32;34425;-72
2022/01/19 08:39:29;;;;;;;33.33;13.23;;;;;;;2.36;58.63;102050.41;5367310;32;34536;-62
2022/01/19 08:42:33;;;;;;;36.57;14.77;;;;;;;2.27;59.05;102050.22;5361742;32;34268;-67
2022/01/19 08:45:36;;;;;;;36.43;14.60;;;;;;;1.58;61.79;102059.00;5366095;32;34699;-71
2022/01/19 08:48:38;;;;;;;46.40;18.33;;;;;;;1.88;61.04;102051.97;5366473;32;35985;-68
2022/01/19 08:51:41;;;;;;;41.97;15.50;;;;;;;1.15;63.58;102050.16;5367081;32;34724;-69
2022/01/19 08:54:45;;;;;;;33.17;15.20;;;;;;;1.36;62.08;102044.66;5360345;32;35864;-71
2022/01/19 08:57:50;;;;;;;37.67;15.07;;;;;;;2.07;60.62;102039.41;5348869;32;44511;-72
2022/01/19 09:00:53;;;;;;;33.10;14.93;;;;;;;2.31;59.73;102031.25;5364032;32;36003;-68
2022/01/19 09:03:56;;;;;;;37.15;14.55;;;;;;;2.98;57.25;102022.19;5360569;32;34812;-67
2022/01/19 09:06:59;;;;;;;32.77;14.67;;;;;;;2.40;57.89;102024.56;5362635;32;36087;-66
2022/01/19 09:10:03;;;;;;;42.45;15.45;;;;;;;1.90;59.00;102039.03;5365214;32;34387;-65
2022/01/19 09:13:07;;;;;;;33.17;14.40;;;;;;;2.14;59.03;102029.19;5364480;32;35851;-72
2022/01/19 09:16:10;;;;;;;;;;;;;;;2.41;59.10;102028.88;5364490;32;36093;-63
2022/01/19 09:19:12;;;;;;;36.60;14.83;;;;;;;2.48;58.46;102027.28;5362798;32;35643;-63
2022/01/19 09:22:20;;;;;;;32.80;15.37;;;;;;;2.55;58.68;102031.75;5365598;32;35788;-70
2022/01/19 09:25:22;;;;;;;36.90;17.20;;;;;;;3.45;55.53;102016.94;5371956;32;44234;-62
2022/01/19 09:28:25;;;;;;;36.33;14.70;;;;;;;3.45;55.01;102020.41;5362078;32;34610;-65
2022/01/19 09:31:28;;;;;;;33.17;13.53;;;;;;;3.66;54.56;102013.78;5355947;32;36180;-72
2022/01/19 09:34:32;;;;;;;29.83;13.43;;;;;;;3.13;56.63;102019.00;5343870;32;35726;-71
2022/01/19 09:37:37;;;;;;;33.20;13.60;;;;;;;3.85;54.05;102017.53;5356545;32;36035;-70
2022/01/19 09:41:01;;;;;;;28.52;12.98;;;;;;;3.72;53.82;102014.75;5359288;32;36233;-69
2022/01/19 09:44:03;;;;;;;;;;;;;;;3.56;54.34;102011.91;5355686;32;35617;-64
2022/01/19 09:47:07;;;;;;;35.40;13.80;;;;;;;3.21;55.49;102004.41;5363825;32;35554;-63
2022/01/19 09:50:10;;;;;;;35.70;14.03;;;;;;;3.32;55.03;102002.00;5358594;32;34438;-69
2022/01/19 09:53:12;;;;;;;33.37;13.53;;;;;;;3.83;53.87;101993.22;5358952;32;34484;-67
2022/01/19 09:56:20;;;;;;;39.00;14.43;;;;;;;3.93;53.62;101974.28;5335985;32;34248;-68
2022/01/19 09:59:25;;;;;;;33.97;13.60;;;;;;;3.72;53.92;101967.06;5356089;32;44336;-71
2022/01/19 10:02:27;;;;;;;36.87;15.90;;;;;;;3.60;55.49;101972.09;5352555;32;35400;-70
2022/01/19 10:05:31;;;;;;;;;;;;;;;3.14;56.10;101967.03;5362470;32;35265;-71
2022/01/19 10:08:47;;;;;;;28.97;13.07;;;;;;;3.92;53.80;101949.13;5335202;32;34702;-74
2022/01/19 10:18:33;;;;;;;32.70;14.57;;;;;;;3.53;54.17;101925.19;5310643;32;35829;-63
2022/01/19 10:21:36;;;;;;;33.83;16.63;;;;;;;3.50;54.64;101926.91;5354135;32;34654;-63
2022/01/19 10:24:48;;;;;;;36.67;15.80;;;;;;;3.91;54.22;101910.97;5362704;32;35041;-67
2022/01/19 10:27:50;;;;;;;36.07;16.40;;;;;;;4.75;52.24;101904.94;5374127;32;46462;-66
2022/01/19 10:30:52;;;;;;;31.03;14.53;;;;;;;4.66;51.72;101889.22;5364932;32;34313;-69
2022/01/19 10:34:10;;;;;;;30.53;14.00;;;;;;;5.31;50.17;101881.03;5362494;32;36000;-67
2022/01/19 10:37:12;;;;;;;34.60;14.00;;;;;;;4.93;50.99;101885.97;5356477;32;36092;-66
2022/01/19 10:40:19;;;;;;;33.27;13.40;;;;;;;5.63;49.06;101872.53;5371458;32;34782;-64
2022/01/19 10:43:26;;;;;;;30.73;12.00;;;;;;;8.08;44.34;101853.31;5360486;32;44676;-67
2022/01/19 10:46:31;;;;;;;31.33;12.07;;;;;;;10.11;38.63;101831.25;5364456;32;36003;-69
2022/01/19 10:50:00;;;;;;;24.37;11.80;;;;;;;10.57;35.72;101826.22;5370170;32;33818;-70
2022/01/19 10:53:04;;;;;;;26.70;11.60;;;;;;;10.74;35.24;101837.31;5360266;32;34438;-69
2022/01/19 10:56:22;;;;;;;35.73;13.57;;;;;;;8.43;39.85;101828.69;5329127;32;36117;-73
2022/01/19 10:59:28;;;;;;;31.73;13.97;;;;;;;10.15;37.16;101818.03;5359532;32;44148;-74
2022/01/19 11:02:37;;;;;;;29.87;15.57;;;;;;;10.65;36.55;101813.81;5359256;32;34456;-76
2022/01/19 11:05:46;;;;;;;31.77;14.87;;;;;;;8.34;40.12;101807.75;5356166;32;33771;-68
2022/01/19 11:08:50;;;;;;;36.30;15.90;;;;;;;9.65;37.97;101805.59;5363552;32;44184;-68
2022/01/19 11:11:56;;;;;;;27.13;15.60;;;;;;;8.95;39.77;101810.78;5369857;32;34445;-69
2022/01/19 11:14:59;;;;;;;32.27;14.60;;;;;;;8.94;40.30;101797.66;5357403;32;33969;-72
2022/01/19 11:18:11;;;;;;;32.67;14.90;;;;;;;9.75;38.57;101780.97;5360718;32;35759;-69
2022/01/19 11:21:13;;;;;;;33.20;16.00;;;;;;;7.51;42.44;101781.19;5359922;32;34413;-67
2022/01/19 11:24:24;;;;;;;34.57;15.23;;;;;;;8.31;40.68;101782.47;5369876;32;34198;-68
2022/01/19 11:27:28;;;;;;;31.70;14.57;;;;;;;7.85;42.26;101771.41;5368830;32;35882;-72
2022/01/19 11:30:35;;;;;;;29.13;13.27;;;;;;;8.33;41.44;101769.34;5358750;32;34625;-71
2022/01/19 11:33:51;;;;;;;29.33;12.80;;;;;;;8.41;41.16;101763.19;5360378;32;34456;-75
2022/01/19 11:36:58;;;;;;;26.73;13.00;;;;;;;6.60;45.06;101756.16;5365458;32;44574;-71
2022/01/19 11:40:08;;;;;;;31.63;14.87;;;;;;;6.83;45.04;101750.88;5363782;32;34341;-72
2022/01/19 11:43:23;;;;;;;32.00;13.00;;;;;;;7.26;44.85;101746.41;5358918;32;33696;-74
2022/01/19 11:46:48;;;;;;;27.57;13.37;;;;;;;8.74;41.89;101723.59;5359051;32;33644;-74
2022/01/19 11:50:32;;;;;;;24.97;11.30;;;;;;;9.48;39.62;101712.22;5343247;32;43014;-76
2022/01/19 11:54:06;;;;;;;25.97;10.93;;;;;;;9.24;40.06;101720.41;5346083;32;36216;-80
2022/01/19 11:57:45;;;;;;;24.80;10.87;;;;;;;7.06;45.71;101717.72;5334736;32;34269;-79
2022/01/19 12:00:51;;;;;;;24.03;10.23;;;;;;;7.77;43.83;101706.03;5343932;32;35726;-72
2022/01/19 12:04:16;;;;;;;23.37;11.00;;;;;;;8.21;42.39;101698.72;5355487;32;36074;-75
2022/01/19 12:07:52;;;;;;;23.77;9.80;;;;;;;7.32;44.63;101694.06;5362972;32;42999;-83
2022/01/19 12:11:01;;;;;;;23.07;9.43;;;;;;;8.64;41.90;101681.75;5355898;32;44159;-78
2022/01/19 12:14:21;;;;;;;24.87;9.83;;;;;;;8.56;40.61;101673.09;5353386;32;32719;-80
2022/01/19 12:18:07;;;;;;;26.50;10.63;;;;;;;9.39;39.92;101677.34;5364893;32;46066;-71
2022/01/19 12:21:17;;;;;;;20.07;9.23;;;;;;;8.77;41.22;101679.00;5348447;32;34829;-76
2022/01/19 12:24:53;;;;;;;;;;;;;;;;;;;;;
2022/01/19 12:28:04;;;;;;;20.60;8.70;;;;;;;9.52;40.12;101662.28;5330494;32;35076;-78
2022/01/19 12:31:22;;;;;;;23.23;8.30;;;;;;;9.18;39.25;101666.25;5371819;32;36393;-76
2022/01/19 12:34:45;;;;;;;19.50;8.50;;;;;;;10.53;36.93;101649.25;5352418;32;44316;-75
2022/01/19 12:37:59;;;;;;;19.10;8.45;;;;;;;9.91;38.29;101647.69;5356190;32;45835;-70
2022/01/19 12:41:02;;;;;;;22.57;8.90;;;;;;;9.16;39.91;101644.44;5361688;32;34699;-71
2022/01/19 12:44:42;;;;;;;21.60;8.30;;;;;;;9.05;40.37;101637.59;5361247;32;35237;-68
2022/01/19 12:47:48;;;;;;;22.10;8.83;;;;;;;8.36;41.41;101623.50;5360408;32;36451;-75
2022/01/19 12:51:04;;;;;;;21.27;8.53;;;;;;;9.41;39.37;101630.97;5358867;32;46032;-75
2022/01/19 12:54:12;;;;;;;23.17;9.70;;;;;;;8.71;41.14;101624.91;5368726;32;34419;-81
2022/01/19 12:57:34;;;;;;;22.23;8.63;;;;;;;9.49;40.13;101611.59;5329625;32;45521;-74
2022/01/19 13:04:49;;;;;;;18.60;8.23;;;;;;;7.11;45.09;101613.13;5362882;32;35198;-68
2022/01/19 13:08:00;;;;;;;22.17;8.03;;;;;;;7.36;44.35;101604.28;5353227;32;45576;-73
2022/01/19 13:11:24;;;;;;;23.20;8.27;;;;;;;8.26;42.66;101592.19;5361973;32;37153;-80
2022/01/19 13:14:30;;;;;;;18.03;7.33;;;;;;;7.86;43.64;101597.78;5373894;32;37602;-76
2022/01/19 13:17:41;;;;;;;17.67;6.93;;;;;;;8.91;40.42;101583.56;5339611;32;35832;-78
2022/01/19 13:20:52;;;;;;;20.37;8.13;;;;;;;8.70;41.18;101580.38;5357234;32;35926;-69
2022/01/19 13:24:31;;;;;;;19.73;7.13;;;;;;;8.17;42.82;101573.91;5349037;32;45823;-69
2022/01/19 13:27:42;;;;;;;21.43;7.17;;;;;;;7.09;45.40;101575.69;5363097;32;35790;-68
2022/01/19 13:31:32;;;;;;;17.67;7.00;;;;;;;7.33;45.03;101575.50;5355614;32;44070;-70
2022/01/19 13:35:14;;;;;;;18.03;6.80;;;;;;;8.22;42.66;101574.75;5352586;32;37096;-69
2022/01/19 13:38:31;;;;;;;18.73;6.37;;;;;;;7.33;44.44;101571.12;5358077;32;32872;-77
2022/01/19 13:41:51;;;;;;;15.23;6.63;;;;;;;7.47;44.22;101554.47;5366228;32;35132;-69
2022/01/19 13:45:19;;;;;;;19.43;7.67;;;;;;;7.60;44.16;101562.25;5372152;32;43297;-76
2022/01/19 13:48:59;;;;;;;18.37;6.70;;;;;;;8.33;42.73;101554.56;5316814;32;34879;-69
2022/01/19 13:52:02;;;;;;;30.30;6.87;;;;;;;8.53;42.49;101546.50;5357568;32;36775;-69
2022/01/19 13:55:59;;;;;;;19.02;7.12;;;;;;;8.83;41.29;101540.00;5333032;32;35611;-67
2022/01/19 13:59:33;;;;;;;17.17;6.70;;;;;;;8.32;43.45;101545.81;5346617;32;33113;-70
2022/01/19 14:03:07;;;;;;;14.40;6.10;;;;;;;9.27;40.45;101535.84;5287021;33;35959;-76
2022/01/19 14:06:50;;;;;;;17.10;6.83;;;;;;;9.26;39.99;101518.37;5325359;32;42749;-70
2022/01/19 14:10:11;;;;;;;16.40;6.27;;;;;;;9.34;40.28;101526.97;5360445;32;34964;-76
2022/01/19 14:14:24;;;;;;;;;;;;;;;;;;;;;
2022/01/19 14:17:53;;;;;;;20.40;7.70;;;;;;;9.85;39.32;101519.13;5282495;33;35906;-75
2022/01/19 14:21:23;;;;;;;20.37;8.60;;;;;;;10.54;37.50;101505.53;5244820;33;32973;-79
2022/01/19 14:24:40;;;;;;;18.13;6.43;;;;;;;8.58;41.48;101514.09;5282211;33;35058;-73
2022/01/19 14:28:21;;;;;;;16.13;7.03;;;;;;;8.95;40.54;101513.56;5290966;33;35068;-77
2022/01/19 14:31:30;;;;;;;16.67;6.83;;;;;;;7.51;44.23;101514.34;5285561;33;43177;-80
2022/01/19 14:34:40;;;;;;;18.23;7.03;;;;;;;6.71;46.33;101498.37;5296068;33;33348;-70
2022/01/19 14:38:21;;;;;;;14.70;6.47;;;;;;;7.37;45.49;101496.16;5272339;33;32911;-69
2022/01/19 14:41:37;;;;;;;33.63;13.60;;;;;;;6.97;46.78;101501.69;5277404;33;33763;-75
2022/01/19 14:44:47;;;;;;;15.50;6.50;;;;;;;7.02;47.40;101485.97;5291375;33;35851;-75
2022/01/19 14:47:54;;;;;;;13.43;5.77;;;;;;;7.35;46.72;101473.53;5294408;33;43429;-68
2022/01/19 14:50:59;;;;;;;14.97;5.83;;;;;;;6.89;47.95;101487.81;5292656;33;35536;-74
2022/01/19 14:54:11;;;;;;;19.33;6.40;;;;;;;7.02;47.01;101473.78;5299020;32;35457;-75
2022/01/19 14:57:15;;;;;;;16.43;6.50;;;;;;;6.71;48.03;101475.72;5334903;32;34605;-74
2022/01/19 15:00:19;;;;;;;16.98;6.60;;;;;;;6.39;49.19;101478.50;5358784;32;44104;-79
2022/01/19 15:03:24;;;;;;;18.73;6.90;;;;;;;6.65;48.75;101475.75;5364741;32;36032;-76
2022/01/19 15:06:27;;;;;;;19.50;7.27;;;;;;;6.47;49.18;101463.66;5366794;32;36400;-74
2022/01/19 15:09:33;;;;;;;19.27;6.30;;;;;;;6.43;49.41;101463.66;5371143;32;34320;-71
2022/01/19 15:12:52;;;;;;;24.77;8.37;;;;;;;6.04;50.47;101467.31;5344517;32;44702;-73
2022/01/19 15:16:05;;;;;;;16.37;7.30;;;;;;;5.67;51.74;101470.00;5352255;32;36009;-71
2022/01/19 15:19:15;;;;;;;15.40;7.20;;;;;;;5.60;51.96;101458.72;5358028;32;35969;-70
2022/01/19 15:22:33;;;;;;;15.23;7.23;;;;;;;6.17;50.53;101448.13;5373154;32;43296;-67
2022/01/19 15:25:57;;;;;;;17.50;7.47;;;;;;;6.35;50.28;101452.41;5345157;32;43096;-75
2022/01/19 15:29:10;;;;;;;23.90;8.30;;;;;;;6.51;50.00;101438.41;5347502;32;34865;-76
2022/01/19 15:32:33;;;;;;;19.40;8.43;;;;;;;6.70;48.86;101441.75;5356814;32;44333;-76
2022/01/19 15:35:43;;;;;;;23.27;8.33;;;;;;;6.58;49.57;101428.78;5354067;32;34622;-76
2022/01/19 15:38:53;;;;;;;23.97;8.33;;;;;;;6.61;49.48;101436.59;5352459;32;44107;-75
2022/01/19 15:42:06;;;;;;;21.03;8.77;;;;;;;6.83;49.05;101430.34;5352520;32;33069;-75
2022/01/19 15:45:09;;;;;;;20.00;8.20;;;;;;;6.68;49.49;101425.22;5348479;32;37031;-69
2022/01/19 15:48:18;;;;;;;20.17;7.82;;;;;;;6.26;50.37;101419.38;5352910;32;35189;-70
2022/01/19 15:51:30;;;;;;;20.83;7.67;;;;;;;6.39;50.05;101396.69;5365019;32;44775;-70
2022/01/19 15:54:41;;;;;;;17.90;7.93;;;;;;;6.93;48.38;101405.00;5357229;32;33981;-70
2022/01/19 15:57:52;;;;;;;13.53;5.93;;;;;;;6.89;48.45;101404.19;5335344;32;35448;-69
2022/01/19 16:01:09;;;;;;;19.60;6.83;;;;;;;7.15;47.13;101405.69;5355545;32;36047;-76
2022/01/19 16:04:34;;;;;;;20.52;7.80;;;;;;;7.29;46.48;101403.84;5356958;32;45011;-69